createdAt,value
2022-09-12T00:01:11.421Z,12.50
2022-09-12T00:05:43.784Z,12.50
2022-09-12T00:10:09.304Z,12.50
2022-09-12T00:14:34.725Z,12.40
2022-09-12T00:19:01.260Z,12.30
2022-09-12T00:23:26.438Z,12.30
2022-09-12T00:27:51.631Z,12.20
2022-09-12T00:32:16.949Z,12.20
2022-09-12T00:36:42.304Z,12.20
2022-09-12T00:41:09.990Z,12.20
2022-09-12T00:45:35.340Z,12.10
2022-09-12T00:50:19.205Z,12.10
2022-09-12T00:54:55.512Z,12.10
2022-09-12T00:59:27.074Z,11.90
2022-09-12T01:03:52.305Z,11.90
2022-09-12T01:08:18.021Z,11.90
2022-09-12T01:12:44.817Z,11.80
2022-09-12T01:17:16.793Z,11.80
2022-09-12T01:22:06.588Z,11.80
2022-09-12T01:26:46.711Z,11.70
2022-09-12T01:32:02.792Z,11.60
2022-09-12T01:36:39.861Z,11.60
2022-09-12T01:41:18.131Z,11.60
2022-09-12T01:45:47.368Z,11.50
2022-09-12T01:50:26.944Z,11.50
2022-09-12T01:54:59.488Z,11.40
2022-09-12T01:59:37.317Z,11.40
2022-09-12T02:04:25.007Z,11.40
2022-09-12T02:10:00.501Z,11.40
2022-09-12T02:14:37.025Z,11.30
2022-09-12T02:19:24.628Z,11.30
2022-09-12T02:23:57.948Z,11.20
2022-09-12T02:28:33.047Z,11.20
2022-09-12T02:33:38.731Z,11.20
2022-09-12T02:38:36.635Z,11.10
2022-09-12T02:43:04.969Z,11.10
2022-09-12T02:47:49.432Z,11.00
2022-09-12T02:52:15.112Z,11.00
2022-09-12T02:56:43.164Z,10.90
2022-09-12T03:01:20.286Z,10.90
2022-09-12T03:06:33.438Z,10.80
2022-09-12T03:11:26.479Z,10.80
2022-09-12T03:16:06.571Z,10.80
2022-09-12T03:21:26.247Z,10.80
2022-09-12T03:26:03.133Z,10.70
2022-09-12T03:30:28.826Z,10.60
2022-09-12T03:34:54.105Z,10.60
2022-09-12T03:39:20.362Z,10.60
2022-09-12T03:43:46.403Z,10.60
2022-09-12T03:48:11.872Z,10.50
2022-09-12T03:52:37.155Z,10.50
2022-09-12T03:57:02.343Z,10.50
2022-09-12T04:01:27.610Z,10.50
2022-09-12T04:05:52.849Z,10.40
2022-09-12T04:10:18.181Z,10.40
2022-09-12T04:14:43.451Z,10.40
2022-09-12T04:19:11.449Z,10.40
2022-09-12T04:23:36.909Z,10.30
2022-09-12T04:28:02.315Z,10.30
2022-09-12T04:32:29.748Z,10.30
2022-09-12T04:36:54.928Z,10.20
2022-09-12T04:41:30.912Z,10.20
2022-09-12T04:45:56.155Z,10.20
2022-09-12T04:50:21.582Z,10.20
2022-09-12T04:54:46.792Z,10.10
2022-09-12T04:59:15.350Z,10.10
2022-09-12T05:03:43.422Z,10.10
2022-09-12T05:08:08.618Z,10.10
2022-09-12T05:12:33.965Z,10.00
2022-09-12T05:17:01.299Z,10.10
2022-09-12T05:21:27.989Z,10.10
2022-09-12T05:25:55.909Z,10.10
2022-09-12T05:30:21.461Z,10.10
2022-09-12T05:34:47.369Z,10.20
2022-09-12T05:39:12.751Z,10.20
2022-09-12T05:43:40.041Z,10.20
2022-09-12T05:48:05.316Z,10.30
2022-09-12T05:52:32.677Z,10.30
2022-09-12T05:56:57.925Z,10.30
2022-09-12T06:01:24.244Z,10.40
2022-09-12T06:05:50.775Z,10.50
2022-09-12T06:10:16.105Z,10.60
2022-09-12T06:14:41.399Z,10.70
2022-09-12T06:19:21.540Z,10.80
2022-09-12T06:23:48.060Z,10.90
2022-09-12T06:28:13.258Z,11.00
2022-09-12T06:32:38.440Z,11.20
2022-09-12T06:37:04.024Z,11.30
2022-09-12T06:41:31.243Z,11.50
2022-09-12T06:45:56.679Z,11.60
2022-09-12T06:50:22.073Z,11.80
2022-09-12T06:54:47.525Z,12.00
2022-09-12T06:59:12.856Z,12.20
2022-09-12T07:03:39.118Z,12.40
2022-09-12T07:08:04.414Z,12.60
2022-09-12T07:12:30.113Z,12.80
2022-09-12T07:16:55.375Z,13.00
2022-09-12T07:21:21.359Z,13.20
2022-09-12T07:25:57.152Z,13.40
2022-09-12T07:30:23.121Z,13.60
2022-09-12T07:34:49.302Z,13.80
2022-09-12T07:39:14.525Z,14.00
2022-09-12T07:43:40.307Z,14.20
2022-09-12T07:48:05.565Z,14.50
2022-09-12T07:52:31.150Z,14.70
2022-09-12T07:56:56.556Z,15.00
2022-09-12T08:01:23.444Z,15.20
2022-09-12T08:05:48.759Z,15.50
2022-09-12T08:10:14.144Z,15.70
2022-09-12T08:14:39.497Z,16.00
2022-09-12T08:19:05.100Z,16.10
2022-09-12T08:23:32.034Z,16.40
2022-09-12T08:27:57.446Z,16.70
2022-09-12T08:32:22.651Z,16.90
2022-09-12T08:36:48.216Z,17.10
2022-09-12T08:41:27.283Z,17.40
2022-09-12T08:46:21.744Z,17.60
2022-09-12T08:50:49.903Z,17.80
2022-09-12T08:55:59.593Z,18.10
2022-09-12T09:00:56.023Z,18.30
2022-09-12T09:06:02.695Z,18.50
2022-09-12T09:10:52.674Z,18.70
2022-09-12T09:15:34.342Z,18.90
2022-09-12T09:20:15.211Z,19.10
2022-09-12T09:24:49.499Z,19.30
2022-09-12T09:29:28.193Z,19.50
2022-09-12T09:33:58.628Z,19.60
2022-09-12T09:38:24.025Z,19.80
2022-09-12T09:42:57.195Z,19.90
2022-09-12T09:47:22.924Z,20.10
2022-09-12T09:51:49.624Z,20.40
2022-09-12T09:56:28.523Z,20.60
2022-09-12T10:01:04.394Z,20.80
2022-09-12T10:05:31.384Z,21.00
2022-09-12T10:10:19.598Z,21.10
2022-09-12T10:15:01.651Z,21.20
2022-09-12T10:19:40.256Z,21.40
2022-09-12T10:24:32.960Z,21.50
2022-09-12T10:28:58.467Z,21.60
2022-09-12T10:33:26.181Z,21.80
2022-09-12T10:38:06.864Z,21.90
2022-09-12T10:42:53.553Z,22.00
2022-09-12T10:47:28.153Z,22.20
2022-09-12T10:51:55.075Z,22.30
2022-09-12T10:56:23.370Z,22.40
2022-09-12T11:00:59.643Z,22.50
2022-09-12T11:05:37.388Z,22.60
2022-09-12T11:10:25.369Z,22.80
2022-09-12T11:15:00.513Z,22.90
2022-09-12T11:19:47.182Z,23.00
2022-09-12T11:24:41.344Z,23.10
2022-09-12T11:29:25.943Z,23.20
2022-09-12T11:33:56.517Z,23.40
2022-09-12T11:39:01.911Z,23.40
2022-09-12T11:43:40.639Z,23.60
2022-09-12T11:48:13.422Z,23.60
2022-09-12T11:52:39.927Z,23.70
2022-09-12T11:57:28.197Z,23.80
2022-09-12T12:02:00.138Z,23.90
2022-09-12T12:06:35.606Z,23.80
2022-09-12T12:11:03.216Z,23.90
2022-09-12T12:15:29.815Z,23.80
2022-09-12T12:20:07.493Z,23.90
2022-09-12T12:24:34.200Z,24.10
2022-09-12T12:28:59.940Z,24.10
2022-09-12T12:33:25.204Z,24.10
2022-09-12T12:37:53.124Z,24.20
2022-09-12T12:42:36.375Z,24.20
2022-09-12T12:47:27.483Z,24.30
2022-09-12T12:52:01.497Z,24.30
2022-09-12T12:56:43.097Z,24.30
2022-09-12T13:01:14.847Z,24.40
2022-09-12T13:05:45.752Z,24.40
2022-09-12T13:10:29.563Z,24.50
2022-09-12T13:14:54.822Z,24.50
2022-09-12T13:19:33.309Z,24.50
2022-09-12T13:24:16.155Z,24.70
2022-09-12T13:28:41.557Z,24.70
2022-09-12T13:33:35.331Z,24.80
2022-09-12T13:38:30.115Z,24.70
2022-09-12T13:43:18.055Z,24.80
2022-09-12T13:47:54.289Z,24.90
2022-09-12T13:52:31.068Z,24.90
2022-09-12T13:56:56.985Z,25.00
2022-09-12T14:01:24.157Z,25.10
2022-09-12T14:05:58.282Z,25.20
2022-09-12T14:10:39.649Z,25.30
2022-09-12T14:15:07.061Z,25.20
2022-09-12T14:19:34.483Z,25.00
2022-09-12T14:24:01.289Z,24.90
2022-09-12T14:28:31.160Z,24.90
2022-09-12T14:33:11.475Z,24.90
2022-09-12T14:37:37.756Z,24.80
2022-09-12T14:42:19.538Z,24.80
2022-09-12T14:46:45.285Z,24.80
2022-09-12T14:51:35.577Z,24.80
2022-09-12T14:56:12.520Z,24.90
2022-09-12T15:00:37.762Z,25.30
2022-09-12T15:05:09.767Z,25.40
2022-09-12T15:09:35.331Z,25.50
2022-09-12T15:14:13.257Z,25.60
2022-09-12T15:18:38.612Z,25.80
2022-09-12T15:23:04.831Z,25.80
2022-09-12T15:27:30.080Z,25.60
2022-09-12T15:31:55.318Z,25.50
2022-09-12T15:36:22.945Z,25.50
2022-09-12T15:40:56.256Z,25.60
2022-09-12T15:45:24.032Z,25.60
2022-09-12T15:49:49.253Z,25.50
2022-09-12T15:54:17.359Z,25.30
2022-09-12T15:58:54.983Z,25.10
2022-09-12T16:03:27.538Z,24.90
2022-09-12T16:07:54.672Z,24.80
2022-09-12T16:12:19.876Z,24.60
2022-09-12T16:16:54.043Z,24.50
2022-09-12T16:21:19.337Z,24.40
2022-09-12T16:25:44.830Z,24.30
2022-09-12T16:30:10.893Z,24.20
2022-09-12T16:34:36.151Z,24.10
2022-09-12T16:39:01.669Z,24.00
2022-09-12T16:43:26.920Z,23.90
2022-09-12T16:47:52.081Z,23.70
2022-09-12T16:52:17.749Z,23.60
2022-09-12T16:56:43.911Z,23.50
2022-09-12T17:01:20.201Z,23.40
2022-09-12T17:05:45.572Z,23.30
2022-09-12T17:10:10.821Z,23.20
2022-09-12T17:14:36.201Z,23.00
2022-09-12T17:19:01.595Z,23.00
2022-09-12T17:23:27.150Z,22.90
2022-09-12T17:27:52.408Z,22.80
2022-09-12T17:32:17.825Z,22.70
2022-09-12T17:36:44.734Z,22.60
2022-09-12T17:41:24.456Z,22.50
2022-09-12T17:45:59.077Z,22.30
2022-09-12T17:50:32.890Z,22.20
2022-09-12T17:54:59.977Z,22.10
2022-09-12T17:59:25.436Z,22.00
2022-09-12T18:03:55.573Z,21.90
2022-09-12T18:08:23.186Z,21.80
2022-09-12T18:12:48.632Z,21.70
2022-09-12T18:17:13.898Z,21.60
2022-09-12T18:21:39.841Z,21.50
2022-09-12T18:26:10.513Z,21.40
2022-09-12T18:30:35.716Z,21.30
2022-09-12T18:35:01.478Z,21.20
2022-09-12T18:39:28.029Z,21.10
2022-09-12T18:43:58.985Z,21.00
2022-09-12T18:48:24.177Z,20.90
2022-09-12T18:52:56.629Z,20.80
2022-09-12T18:57:25.477Z,20.80
2022-09-12T19:01:50.826Z,20.70
2022-09-12T19:06:30.438Z,20.60
2022-09-12T19:10:56.912Z,20.50
2022-09-12T19:15:22.121Z,20.40
2022-09-12T19:19:47.356Z,20.40
2022-09-12T19:24:15.157Z,20.30
2022-09-12T19:28:41.226Z,20.20
2022-09-12T19:33:06.555Z,20.10
2022-09-12T19:37:32.155Z,20.10
2022-09-12T19:41:57.594Z,20.00
2022-09-12T19:46:25.650Z,20.00
2022-09-12T19:50:51.028Z,19.90
2022-09-12T19:55:16.628Z,19.90
2022-09-12T19:59:42.674Z,19.80
2022-09-12T20:04:07.939Z,19.70
2022-09-12T20:08:34.256Z,19.70
2022-09-12T20:12:59.494Z,19.60
2022-09-12T20:17:24.754Z,19.60
2022-09-12T20:21:49.914Z,19.60
2022-09-12T20:26:15.232Z,19.50
2022-09-12T20:30:40.442Z,19.40
2022-09-12T20:35:07.664Z,19.40
2022-09-12T20:39:32.854Z,19.40
2022-09-12T20:43:58.856Z,19.30
2022-09-12T20:48:24.987Z,19.30
2022-09-12T20:52:50.186Z,19.20
2022-09-12T20:57:15.520Z,19.20
2022-09-12T21:01:40.792Z,19.20
2022-09-12T21:06:08.022Z,19.10
2022-09-12T21:10:33.386Z,19.10
2022-09-12T21:14:58.557Z,19.00
2022-09-12T21:19:23.807Z,19.00
2022-09-12T21:23:50.961Z,18.90
2022-09-12T21:28:17.374Z,18.90
2022-09-12T21:32:42.760Z,18.80
2022-09-12T21:37:08.087Z,18.80
2022-09-12T21:41:34.418Z,18.70
2022-09-12T21:46:00.800Z,18.70
2022-09-12T21:50:26.257Z,18.60
2022-09-12T21:54:51.462Z,18.60
2022-09-12T21:59:16.647Z,18.60
2022-09-12T22:03:43.188Z,18.50
2022-09-12T22:08:09.791Z,18.50
2022-09-12T22:12:35.077Z,18.50
2022-09-12T22:17:00.361Z,18.50
2022-09-12T22:21:25.569Z,18.40
2022-09-12T22:25:50.788Z,18.40
2022-09-12T22:30:16.302Z,18.40
2022-09-12T22:34:41.552Z,18.30
2022-09-12T22:39:07.656Z,18.30
2022-09-12T22:43:34.746Z,18.30
2022-09-12T22:48:00.996Z,18.20
2022-09-12T22:52:26.505Z,18.20
2022-09-12T22:56:51.709Z,18.20
2022-09-12T23:01:18.383Z,18.20
2022-09-12T23:05:44.851Z,18.10
2022-09-12T23:10:10.689Z,18.10
2022-09-12T23:14:35.886Z,18.10
2022-09-12T23:19:01.148Z,18.10
2022-09-12T23:23:26.863Z,18.00
2022-09-12T23:27:52.512Z,18.00
2022-09-12T23:32:25.212Z,18.00
2022-09-12T23:36:50.414Z,18.00
2022-09-12T23:41:18.309Z,18.00
2022-09-12T23:45:43.506Z,18.00
2022-09-12T23:50:09.015Z,18.00
2022-09-12T23:54:34.221Z,18.00
2022-09-12T23:58:59.437Z,18.00
